Terminal Aerodrome Forecast
Issued by NWS Cleveland, OH

Home | Current Version | Previous Version | Text Only | Print | Product List | Glossary Off
Versions: 1 2 3 4 5 6 7 8 9 10 11 12 13 14 15 16 17 18 19 20 21 22 23 24 25 26 27

000
FTUS41 KCLE 022041 AAB
TAFCLE
TAF AMD
KCLE 022041Z 0221/0324 27010G15KT P6SM OVC025
      TEMPO 0221/0222 -SHRA OVC015
     FM030600 27008KT P6SM OVC015
     FM031200 27007KT 5SM BR OVC007
     FM031800 27009KT P6SM OVC015
     FM032100 28008KT P6SM OVC035=

USA.gov is the U.S. government's official web portal to all federal, state and local government web resources and services.